sensor_id;sensor_type;location;lat;lon;timestamp;temperature;humidity
51253;DHT22;38936;47.808;19.936;2022-08-11T00:00:11;21.20;61.70
51253;DHT22;38936;47.808;19.936;2022-08-11T00:02:44;21.20;61.60
51253;DHT22;38936;47.808;19.936;2022-08-11T00:05:13;21.10;61.90
51253;DHT22;38936;47.808;19.936;2022-08-11T00:07:53;21.10;62.10
51253;DHT22;38936;47.808;19.936;2022-08-11T00:10:24;21.00;62.30
51253;DHT22;38936;47.808;19.936;2022-08-11T00:12:56;20.90;62.60
51253;DHT22;38936;47.808;19.936;2022-08-11T00:15:40;21.00;62.60
51253;DHT22;38936;47.808;19.936;2022-08-11T00:18:07;21.00;62.40
51253;DHT22;38936;47.808;19.936;2022-08-11T00:20:37;20.90;62.60
51253;DHT22;38936;47.808;19.936;2022-08-11T00:23:14;20.90;62.90
51253;DHT22;38936;47.808;19.936;2022-08-11T00:25:50;20.80;62.80
51253;DHT22;38936;47.808;19.936;2022-08-11T00:28:26;20.80;63.00
51253;DHT22;38936;47.808;19.936;2022-08-11T00:30:54;20.80;63.00
51253;DHT22;38936;47.808;19.936;2022-08-11T00:33:23;20.80;63.20
51253;DHT22;38936;47.808;19.936;2022-08-11T00:35:50;20.80;63.40
51253;DHT22;38936;47.808;19.936;2022-08-11T00:38:17;20.80;63.60
51253;DHT22;38936;47.808;19.936;2022-08-11T00:41:10;20.70;63.80
51253;DHT22;38936;47.808;19.936;2022-08-11T01:29:39;20.50;67.20
51253;DHT22;38936;47.808;19.936;2022-08-11T01:43:38;20.50;66.90
51253;DHT22;38936;47.808;19.936;2022-08-11T01:46:28;20.50;67.20
51253;DHT22;38936;47.808;19.936;2022-08-11T01:49:38;20.50;67.40
51253;DHT22;38936;47.808;19.936;2022-08-11T01:52:10;20.50;67.40
51253;DHT22;38936;47.808;19.936;2022-08-11T01:55:03;20.50;67.30
51253;DHT22;38936;47.808;19.936;2022-08-11T01:57:38;20.50;67.50
51253;DHT22;38936;47.808;19.936;2022-08-11T02:00:16;20.50;67.70
51253;DHT22;38936;47.808;19.936;2022-08-11T02:02:52;20.50;67.60
51253;DHT22;38936;47.808;19.936;2022-08-11T02:11:23;20.40;67.80
51253;DHT22;38936;47.808;19.936;2022-08-11T02:14:16;20.50;67.40
51253;DHT22;38936;47.808;19.936;2022-08-11T02:30:59;20.40;67.40
51253;DHT22;38936;47.808;19.936;2022-08-11T02:33:49;20.50;67.10
51253;DHT22;38936;47.808;19.936;2022-08-11T02:36:34;20.40;67.00
51253;DHT22;38936;47.808;19.936;2022-08-11T02:39:08;20.40;67.10
51253;DHT22;38936;47.808;19.936;2022-08-11T02:47:31;20.20;67.80
51253;DHT22;38936;47.808;19.936;2022-08-11T02:50:24;20.20;67.90
51253;DHT22;38936;47.808;19.936;2022-08-11T02:53:15;20.20;67.70
51253;DHT22;38936;47.808;19.936;2022-08-11T02:58:58;20.20;66.40
51253;DHT22;38936;47.808;19.936;2022-08-11T03:04:51;20.20;66.30
51253;DHT22;38936;47.808;19.936;2022-08-11T03:09:54;20.20;66.40
51253;DHT22;38936;47.808;19.936;2022-08-11T03:15:37;20.20;66.50
51253;DHT22;38936;47.808;19.936;2022-08-11T03:21:27;20.20;66.50
51253;DHT22;38936;47.808;19.936;2022-08-11T03:24:07;20.20;66.60
51253;DHT22;38936;47.808;19.936;2022-08-11T03:29:44;20.20;66.50
51253;DHT22;38936;47.808;19.936;2022-08-11T03:32:28;20.20;66.90
51253;DHT22;38936;47.808;19.936;2022-08-11T03:34:56;20.10;67.00
51253;DHT22;38936;47.808;19.936;2022-08-11T03:37:50;20.20;67.20
51253;DHT22;38936;47.808;19.936;2022-08-11T03:40:47;20.20;67.00
51253;DHT22;38936;47.808;19.936;2022-08-11T03:46:13;20.10;67.50
51253;DHT22;38936;47.808;19.936;2022-08-11T03:51:51;20.20;67.60
51253;DHT22;38936;47.808;19.936;2022-08-11T03:54:33;20.20;67.60
51253;DHT22;38936;47.808;19.936;2022-08-11T04:00:17;20.20;67.40
51253;DHT22;38936;47.808;19.936;2022-08-11T04:13:48;20.40;66.90
51253;DHT22;38936;47.808;19.936;2022-08-11T04:31:24;20.80;65.60
51253;DHT22;38936;47.808;19.936;2022-08-11T05:01:14;21.50;63.50
51253;DHT22;38936;47.808;19.936;2022-08-11T05:10:43;22.00;62.20
51253;DHT22;38936;47.808;19.936;2022-08-11T05:13:26;22.10;61.90
51253;DHT22;38936;47.808;19.936;2022-08-11T05:16:14;22.20;61.70
51253;DHT22;38936;47.808;19.936;2022-08-11T05:19:01;22.10;61.50
51253;DHT22;38936;47.808;19.936;2022-08-11T05:21:50;22.30;61.20
51253;DHT22;38936;47.808;19.936;2022-08-11T05:24:42;22.40;61.20
51253;DHT22;38936;47.808;19.936;2022-08-11T05:27:39;22.50;60.90
51253;DHT22;38936;47.808;19.936;2022-08-11T05:30:28;23.00;59.40
51253;DHT22;38936;47.808;19.936;2022-08-11T05:39:03;23.40;58.40
51253;DHT22;38936;47.808;19.936;2022-08-11T05:41:48;23.80;56.70
51253;DHT22;38936;47.808;19.936;2022-08-11T05:44:35;24.30;55.50
51253;DHT22;38936;47.808;19.936;2022-08-11T05:47:23;24.40;54.60
51253;DHT22;38936;47.808;19.936;2022-08-11T05:50:10;24.50;54.10
51253;DHT22;38936;47.808;19.936;2022-08-11T05:52:56;24.70;53.50
51253;DHT22;38936;47.808;19.936;2022-08-11T05:55:44;25.00;52.80
51253;DHT22;38936;47.808;19.936;2022-08-11T05:58:39;25.20;51.70
51253;DHT22;38936;47.808;19.936;2022-08-11T06:01:06;25.20;51.20
51253;DHT22;38936;47.808;19.936;2022-08-11T06:03:33;25.30;51.60
51253;DHT22;38936;47.808;19.936;2022-08-11T06:06:24;25.70;50.60
51253;DHT22;38936;47.808;19.936;2022-08-11T06:08:54;26.30;49.80
51253;DHT22;38936;47.808;19.936;2022-08-11T06:11:22;26.70;48.50
51253;DHT22;38936;47.808;19.936;2022-08-11T06:13:49;27.30;47.70
51253;DHT22;38936;47.808;19.936;2022-08-11T06:16:24;27.90;45.80
51253;DHT22;38936;47.808;19.936;2022-08-11T06:18:50;28.30;44.90
51253;DHT22;38936;47.808;19.936;2022-08-11T06:21:16;28.70;43.50
51253;DHT22;38936;47.808;19.936;2022-08-11T06:23:44;29.20;42.70
51253;DHT22;38936;47.808;19.936;2022-08-11T06:26:11;29.30;42.10
51253;DHT22;38936;47.808;19.936;2022-08-11T06:28:39;29.50;41.60
51253;DHT22;38936;47.808;19.936;2022-08-11T06:31:17;30.00;40.20
51253;DHT22;38936;47.808;19.936;2022-08-11T06:36:22;29.80;40.00
51253;DHT22;38936;47.808;19.936;2022-08-11T06:39:02;29.80;40.20
51253;DHT22;38936;47.808;19.936;2022-08-11T06:41:51;30.50;38.70
51253;DHT22;38936;47.808;19.936;2022-08-11T06:44:28;30.60;38.50
51253;DHT22;38936;47.808;19.936;2022-08-11T06:47:04;30.20;38.20
51253;DHT22;38936;47.808;19.936;2022-08-11T06:49:35;30.30;38.50
51253;DHT22;38936;47.808;19.936;2022-08-11T06:52:31;30.20;38.90
51253;DHT22;38936;47.808;19.936;2022-08-11T06:55:00;30.10;39.00
51253;DHT22;38936;47.808;19.936;2022-08-11T06:57:35;29.90;39.40
51253;DHT22;38936;47.808;19.936;2022-08-11T07:00:21;29.70;39.70
51253;DHT22;38936;47.808;19.936;2022-08-11T07:08:44;29.70;39.20
51253;DHT22;38936;47.808;19.936;2022-08-11T07:14:40;30.00;39.60
51253;DHT22;38936;47.808;19.936;2022-08-11T07:17:31;29.70;39.50
51253;DHT22;38936;47.808;19.936;2022-08-11T07:20:01;29.90;40.00
51253;DHT22;38936;47.808;19.936;2022-08-11T07:22:58;29.80;39.10
51253;DHT22;38936;47.808;19.936;2022-08-11T07:25:48;30.00;38.70
51253;DHT22;38936;47.808;19.936;2022-08-11T07:28:33;30.00;39.00
51253;DHT22;38936;47.808;19.936;2022-08-11T07:34:22;30.20;39.80
51253;DHT22;38936;47.808;19.936;2022-08-11T07:36:54;30.40;39.10
51253;DHT22;38936;47.808;19.936;2022-08-11T07:39:26;30.20;39.40
51253;DHT22;38936;47.808;19.936;2022-08-11T07:41:53;30.20;39.60
51253;DHT22;38936;47.808;19.936;2022-08-11T07:44:22;30.20;39.60
51253;DHT22;38936;47.808;19.936;2022-08-11T07:46:51;30.10;39.70
51253;DHT22;38936;47.808;19.936;2022-08-11T07:49:38;30.30;39.00
51253;DHT22;38936;47.808;19.936;2022-08-11T07:52:24;30.50;37.70
51253;DHT22;38936;47.808;19.936;2022-08-11T07:55:00;30.70;37.30
51253;DHT22;38936;47.808;19.936;2022-08-11T07:57:26;31.20;36.00
51253;DHT22;38936;47.808;19.936;2022-08-11T08:00:11;31.10;36.80
51253;DHT22;38936;47.808;19.936;2022-08-11T08:02:57;30.80;37.20
51253;DHT22;38936;47.808;19.936;2022-08-11T08:05:43;31.30;36.80
51253;DHT22;38936;47.808;19.936;2022-08-11T08:08:28;31.40;36.70
51253;DHT22;38936;47.808;19.936;2022-08-11T08:11:13;31.20;35.80
51253;DHT22;38936;47.808;19.936;2022-08-11T08:13:58;31.50;35.50
51253;DHT22;38936;47.808;19.936;2022-08-11T08:16:43;31.50;35.50
51253;DHT22;38936;47.808;19.936;2022-08-11T08:19:27;31.50;35.70
51253;DHT22;38936;47.808;19.936;2022-08-11T08:21:54;31.50;36.00
51253;DHT22;38936;47.808;19.936;2022-08-11T08:24:20;31.50;35.80
51253;DHT22;38936;47.808;19.936;2022-08-11T08:26:47;31.50;35.60
51253;DHT22;38936;47.808;19.936;2022-08-11T08:29:32;31.60;34.90
51253;DHT22;38936;47.808;19.936;2022-08-11T08:32:18;31.40;35.00
51253;DHT22;38936;47.808;19.936;2022-08-11T08:34:50;31.30;35.30
51253;DHT22;38936;47.808;19.936;2022-08-11T08:37:18;31.30;36.10
51253;DHT22;38936;47.808;19.936;2022-08-11T08:39:47;31.80;35.10
51253;DHT22;38936;47.808;19.936;2022-08-11T08:42:19;31.80;35.40
51253;DHT22;38936;47.808;19.936;2022-08-11T08:45:01;32.10;35.40
51253;DHT22;38936;47.808;19.936;2022-08-11T08:47:28;32.20;34.80
51253;DHT22;38936;47.808;19.936;2022-08-11T08:50:02;32.60;34.20
51253;DHT22;38936;47.808;19.936;2022-08-11T08:52:33;32.00;34.80
51253;DHT22;38936;47.808;19.936;2022-08-11T08:55:04;31.70;35.40
51253;DHT22;38936;47.808;19.936;2022-08-11T08:57:32;31.90;35.80
51253;DHT22;38936;47.808;19.936;2022-08-11T09:00:00;32.20;35.20
51253;DHT22;38936;47.808;19.936;2022-08-11T09:02:27;32.10;34.70
51253;DHT22;38936;47.808;19.936;2022-08-11T09:04:53;32.30;34.40
51253;DHT22;38936;47.808;19.936;2022-08-11T09:07:22;32.00;35.00
51253;DHT22;38936;47.808;19.936;2022-08-11T09:09:50;32.30;34.80
51253;DHT22;38936;47.808;19.936;2022-08-11T09:12:18;32.10;34.30
51253;DHT22;38936;47.808;19.936;2022-08-11T09:14:48;32.30;34.40
51253;DHT22;38936;47.808;19.936;2022-08-11T09:17:44;32.50;34.20
51253;DHT22;38936;47.808;19.936;2022-08-11T09:20:19;32.20;34.40
51253;DHT22;38936;47.808;19.936;2022-08-11T09:22:48;31.90;34.70
51253;DHT22;38936;47.808;19.936;2022-08-11T09:25:33;32.10;34.50
51253;DHT22;38936;47.808;19.936;2022-08-11T09:28:20;32.30;34.20
51253;DHT22;38936;47.808;19.936;2022-08-11T09:30:48;32.30;34.40
51253;DHT22;38936;47.808;19.936;2022-08-11T09:33:18;32.30;34.50
51253;DHT22;38936;47.808;19.936;2022-08-11T09:35:46;32.60;33.90
51253;DHT22;38936;47.808;19.936;2022-08-11T09:38:14;32.80;33.50
51253;DHT22;38936;47.808;19.936;2022-08-11T09:41:02;32.70;33.50
51253;DHT22;38936;47.808;19.936;2022-08-11T09:43:30;32.60;33.90
51253;DHT22;38936;47.808;19.936;2022-08-11T09:46:16;32.60;33.70
51253;DHT22;38936;47.808;19.936;2022-08-11T09:48:47;32.70;33.00
51253;DHT22;38936;47.808;19.936;2022-08-11T09:51:13;32.80;32.10
51253;DHT22;38936;47.808;19.936;2022-08-11T09:53:41;32.60;33.10
51253;DHT22;38936;47.808;19.936;2022-08-11T09:56:14;32.60;33.20
51253;DHT22;38936;47.808;19.936;2022-08-11T09:59:00;32.70;33.20
51253;DHT22;38936;47.808;19.936;2022-08-11T10:01:34;33.00;32.30
51253;DHT22;38936;47.808;19.936;2022-08-11T10:06:38;31.90;34.10
51253;DHT22;38936;47.808;19.936;2022-08-11T10:09:23;31.90;33.40
51253;DHT22;38936;47.808;19.936;2022-08-11T10:11:53;31.50;33.80
51253;DHT22;38936;47.808;19.936;2022-08-11T10:14:21;31.40;34.60
51253;DHT22;38936;47.808;19.936;2022-08-11T10:17:07;31.40;34.40
51253;DHT22;38936;47.808;19.936;2022-08-11T10:19:36;31.20;34.20
51253;DHT22;38936;47.808;19.936;2022-08-11T10:22:04;30.80;34.50
51253;DHT22;38936;47.808;19.936;2022-08-11T10:24:48;30.50;35.60
51253;DHT22;38936;47.808;19.936;2022-08-11T10:27:54;30.60;35.30
51253;DHT22;38936;47.808;19.936;2022-08-11T10:30:25;30.50;35.40
51253;DHT22;38936;47.808;19.936;2022-08-11T10:33:13;29.80;35.80
51253;DHT22;38936;47.808;19.936;2022-08-11T10:35:59;29.00;36.70
51253;DHT22;38936;47.808;19.936;2022-08-11T10:38:27;28.50;37.40
51253;DHT22;38936;47.808;19.936;2022-08-11T10:40:54;28.00;38.10
51253;DHT22;38936;47.808;19.936;2022-08-11T10:43:40;27.60;38.80
51253;DHT22;38936;47.808;19.936;2022-08-11T10:46:09;27.30;39.00
51253;DHT22;38936;47.808;19.936;2022-08-11T10:48:55;27.10;39.40
51253;DHT22;38936;47.808;19.936;2022-08-11T10:51:23;27.20;39.50
51253;DHT22;38936;47.808;19.936;2022-08-11T10:54:07;27.50;40.00
51253;DHT22;38936;47.808;19.936;2022-08-11T10:56:53;27.90;37.60
51253;DHT22;38936;47.808;19.936;2022-08-11T10:59:38;27.80;37.70
51253;DHT22;38936;47.808;19.936;2022-08-11T11:02:11;27.80;38.30
51253;DHT22;38936;47.808;19.936;2022-08-11T11:04:57;28.00;38.10
51253;DHT22;38936;47.808;19.936;2022-08-11T11:07:39;28.20;37.60
51253;DHT22;38936;47.808;19.936;2022-08-11T11:10:07;28.50;38.20
51253;DHT22;38936;47.808;19.936;2022-08-11T11:12:41;28.50;38.00
51253;DHT22;38936;47.808;19.936;2022-08-11T11:15:29;28.60;37.80
51253;DHT22;38936;47.808;19.936;2022-08-11T11:18:24;28.80;38.50
51253;DHT22;38936;47.808;19.936;2022-08-11T11:21:01;28.70;37.70
51253;DHT22;38936;47.808;19.936;2022-08-11T11:26:34;27.90;38.50
51253;DHT22;38936;47.808;19.936;2022-08-11T11:31:55;27.40;39.40
51253;DHT22;38936;47.808;19.936;2022-08-11T11:36:57;27.90;38.60
51253;DHT22;38936;47.808;19.936;2022-08-11T11:39:29;28.00;38.90
51253;DHT22;38936;47.808;19.936;2022-08-11T11:41:59;28.10;39.40
51253;DHT22;38936;47.808;19.936;2022-08-11T11:44:26;28.50;37.50
51253;DHT22;38936;47.808;19.936;2022-08-11T11:46:53;28.60;37.60
51253;DHT22;38936;47.808;19.936;2022-08-11T11:49:22;28.50;37.60
51253;DHT22;38936;47.808;19.936;2022-08-11T11:51:50;28.60;37.60
51253;DHT22;38936;47.808;19.936;2022-08-11T11:54:22;28.50;37.10
51253;DHT22;38936;47.808;19.936;2022-08-11T11:56:49;28.20;37.00
51253;DHT22;38936;47.808;19.936;2022-08-11T11:59:19;27.90;37.60
51253;DHT22;38936;47.808;19.936;2022-08-11T12:02:05;28.00;38.10
51253;DHT22;38936;47.808;19.936;2022-08-11T12:04:31;28.10;38.00
51253;DHT22;38936;47.808;19.936;2022-08-11T12:06:57;28.20;38.10
51253;DHT22;38936;47.808;19.936;2022-08-11T12:09:45;28.40;38.00
51253;DHT22;38936;47.808;19.936;2022-08-11T12:12:11;28.40;38.40
51253;DHT22;38936;47.808;19.936;2022-08-11T12:14:55;28.40;37.70
51253;DHT22;38936;47.808;19.936;2022-08-11T12:17:22;28.40;37.40
51253;DHT22;38936;47.808;19.936;2022-08-11T12:19:48;28.50;38.00
51253;DHT22;38936;47.808;19.936;2022-08-11T12:22:14;28.50;35.70
51253;DHT22;38936;47.808;19.936;2022-08-11T12:25:00;28.40;36.10
51253;DHT22;38936;47.808;19.936;2022-08-11T12:27:45;28.30;36.80
51253;DHT22;38936;47.808;19.936;2022-08-11T12:30:12;28.10;35.10
51253;DHT22;38936;47.808;19.936;2022-08-11T12:32:40;27.90;36.10
51253;DHT22;38936;47.808;19.936;2022-08-11T12:35:07;27.80;36.30
51253;DHT22;38936;47.808;19.936;2022-08-11T12:37:38;27.90;37.20
51253;DHT22;38936;47.808;19.936;2022-08-11T12:40:10;27.90;37.60
51253;DHT22;38936;47.808;19.936;2022-08-11T12:43:00;28.00;38.00
51253;DHT22;38936;47.808;19.936;2022-08-11T12:45:46;28.00;37.50
51253;DHT22;38936;47.808;19.936;2022-08-11T12:48:18;27.90;38.10
51253;DHT22;38936;47.808;19.936;2022-08-11T12:51:09;27.90;38.40
51253;DHT22;38936;47.808;19.936;2022-08-11T12:54:16;27.90;38.30
51253;DHT22;38936;47.808;19.936;2022-08-11T12:56:50;28.00;37.90
51253;DHT22;38936;47.808;19.936;2022-08-11T12:59:38;28.10;37.00
51253;DHT22;38936;47.808;19.936;2022-08-11T13:02:24;28.10;35.80
51253;DHT22;38936;47.808;19.936;2022-08-11T13:05:13;27.70;36.60
51253;DHT22;38936;47.808;19.936;2022-08-11T13:07:42;27.60;37.00
51253;DHT22;38936;47.808;19.936;2022-08-11T13:10:10;27.50;36.90
51253;DHT22;38936;47.808;19.936;2022-08-11T13:12:37;27.60;37.40
51253;DHT22;38936;47.808;19.936;2022-08-11T13:15:19;27.60;36.80
51253;DHT22;38936;47.808;19.936;2022-08-11T13:17:47;27.80;36.80
51253;DHT22;38936;47.808;19.936;2022-08-11T13:20:20;28.00;36.80
51253;DHT22;38936;47.808;19.936;2022-08-11T13:22:54;28.10;37.00
51253;DHT22;38936;47.808;19.936;2022-08-11T13:25:25;28.00;36.70
51253;DHT22;38936;47.808;19.936;2022-08-11T13:27:55;27.70;37.20
51253;DHT22;38936;47.808;19.936;2022-08-11T13:30:24;27.60;37.30
51253;DHT22;38936;47.808;19.936;2022-08-11T13:33:10;27.60;37.40
51253;DHT22;38936;47.808;19.936;2022-08-11T13:35:36;27.60;37.60
51253;DHT22;38936;47.808;19.936;2022-08-11T13:38:03;27.80;38.00
51253;DHT22;38936;47.808;19.936;2022-08-11T13:40:31;27.80;38.10
51253;DHT22;38936;47.808;19.936;2022-08-11T13:42:57;27.80;37.90
51253;DHT22;38936;47.808;19.936;2022-08-11T13:45:24;27.70;37.90
51253;DHT22;38936;47.808;19.936;2022-08-11T13:47:57;27.60;37.70
51253;DHT22;38936;47.808;19.936;2022-08-11T13:50:25;27.60;37.80
51253;DHT22;38936;47.808;19.936;2022-08-11T13:53:16;27.50;36.60
51253;DHT22;38936;47.808;19.936;2022-08-11T13:55:42;27.50;37.40
51253;DHT22;38936;47.808;19.936;2022-08-11T13:58:10;27.50;37.90
51253;DHT22;38936;47.808;19.936;2022-08-11T14:00:37;27.60;38.00
51253;DHT22;38936;47.808;19.936;2022-08-11T14:03:07;27.60;38.40
51253;DHT22;38936;47.808;19.936;2022-08-11T14:05:39;27.60;38.50
51253;DHT22;38936;47.808;19.936;2022-08-11T14:08:15;27.50;38.60
51253;DHT22;38936;47.808;19.936;2022-08-11T14:10:43;27.40;38.40
51253;DHT22;38936;47.808;19.936;2022-08-11T14:13:15;27.30;38.80
51253;DHT22;38936;47.808;19.936;2022-08-11T14:16:04;27.30;38.60
51253;DHT22;38936;47.808;19.936;2022-08-11T14:18:32;27.20;38.80
51253;DHT22;38936;47.808;19.936;2022-08-11T14:21:00;27.10;39.00
51253;DHT22;38936;47.808;19.936;2022-08-11T14:23:51;27.20;39.40
51253;DHT22;38936;47.808;19.936;2022-08-11T14:26:24;27.10;39.80
51253;DHT22;38936;47.808;19.936;2022-08-11T14:29:03;26.90;40.10
51253;DHT22;38936;47.808;19.936;2022-08-11T14:31:31;26.80;40.70
51253;DHT22;38936;47.808;19.936;2022-08-11T14:34:01;26.90;40.10
51253;DHT22;38936;47.808;19.936;2022-08-11T14:36:35;27.00;39.60
51253;DHT22;38936;47.808;19.936;2022-08-11T14:39:09;27.20;38.50
51253;DHT22;38936;47.808;19.936;2022-08-11T14:41:39;27.20;38.70
51253;DHT22;38936;47.808;19.936;2022-08-11T14:44:25;27.30;38.60
51253;DHT22;38936;47.808;19.936;2022-08-11T14:47:13;27.20;38.20
51253;DHT22;38936;47.808;19.936;2022-08-11T14:49:40;27.20;38.70
51253;DHT22;38936;47.808;19.936;2022-08-11T14:52:11;27.20;38.60
51253;DHT22;38936;47.808;19.936;2022-08-11T14:54:46;27.30;38.70
51253;DHT22;38936;47.808;19.936;2022-08-11T14:57:34;27.40;38.40
51253;DHT22;38936;47.808;19.936;2022-08-11T15:00:02;27.40;38.00
51253;DHT22;38936;47.808;19.936;2022-08-11T15:02:29;27.40;38.70
51253;DHT22;38936;47.808;19.936;2022-08-11T15:05:14;27.30;38.20
51253;DHT22;38936;47.808;19.936;2022-08-11T15:07:40;27.30;38.10
51253;DHT22;38936;47.808;19.936;2022-08-11T15:10:08;27.20;38.60
51253;DHT22;38936;47.808;19.936;2022-08-11T15:12:36;27.10;39.00
51253;DHT22;38936;47.808;19.936;2022-08-11T15:15:05;27.10;39.60
51253;DHT22;38936;47.808;19.936;2022-08-11T15:17:58;27.10;40.30
51253;DHT22;38936;47.808;19.936;2022-08-11T15:20:27;27.00;39.70
51253;DHT22;38936;47.808;19.936;2022-08-11T15:23:27;26.80;40.30
51253;DHT22;38936;47.808;19.936;2022-08-11T15:26:14;26.70;40.60
51253;DHT22;38936;47.808;19.936;2022-08-11T15:28:48;26.50;41.20
51253;DHT22;38936;47.808;19.936;2022-08-11T15:31:35;26.50;41.40
51253;DHT22;38936;47.808;19.936;2022-08-11T15:34:24;26.40;42.30
51253;DHT22;38936;47.808;19.936;2022-08-11T15:37:13;26.30;43.10
51253;DHT22;38936;47.808;19.936;2022-08-11T15:39:57;26.20;43.40
51253;DHT22;38936;47.808;19.936;2022-08-11T15:43:09;26.20;44.00
51253;DHT22;38936;47.808;19.936;2022-08-11T15:45:56;26.00;44.70
51253;DHT22;38936;47.808;19.936;2022-08-11T15:53:49;25.40;44.40
51253;DHT22;38936;47.808;19.936;2022-08-11T15:56:16;25.20;44.80
51253;DHT22;38936;47.808;19.936;2022-08-11T15:58:46;24.90;45.10
51253;DHT22;38936;47.808;19.936;2022-08-11T16:01:31;24.80;45.80
51253;DHT22;38936;47.808;19.936;2022-08-11T16:04:21;24.70;46.20
51253;DHT22;38936;47.808;19.936;2022-08-11T16:12:08;24.40;47.20
51253;DHT22;38936;47.808;19.936;2022-08-11T16:14:48;24.20;47.80
51253;DHT22;38936;47.808;19.936;2022-08-11T16:17:39;24.20;48.30
51253;DHT22;38936;47.808;19.936;2022-08-11T16:20:06;24.10;48.60
51253;DHT22;38936;47.808;19.936;2022-08-11T16:22:34;24.20;48.70
51253;DHT22;38936;47.808;19.936;2022-08-11T16:25:11;24.10;48.90
51253;DHT22;38936;47.808;19.936;2022-08-11T16:27:41;24.10;48.80
51253;DHT22;38936;47.808;19.936;2022-08-11T16:30:09;24.00;49.00
51253;DHT22;38936;47.808;19.936;2022-08-11T16:32:38;24.10;49.00
51253;DHT22;38936;47.808;19.936;2022-08-11T16:35:08;24.00;48.90
51253;DHT22;38936;47.808;19.936;2022-08-11T16:37:54;23.80;49.30
51253;DHT22;38936;47.808;19.936;2022-08-11T16:40:41;23.80;49.30
51253;DHT22;38936;47.808;19.936;2022-08-11T16:43:11;23.70;49.70
51253;DHT22;38936;47.808;19.936;2022-08-11T16:45:57;23.60;50.00
51253;DHT22;38936;47.808;19.936;2022-08-11T16:48:45;23.60;49.90
51253;DHT22;38936;47.808;19.936;2022-08-11T16:51:12;23.50;50.20
51253;DHT22;38936;47.808;19.936;2022-08-11T16:53:39;23.40;50.90
51253;DHT22;38936;47.808;19.936;2022-08-11T16:56:11;23.30;51.20
51253;DHT22;38936;47.808;19.936;2022-08-11T16:58:42;23.20;51.70
51253;DHT22;38936;47.808;19.936;2022-08-11T17:01:27;23.20;51.70
51253;DHT22;38936;47.808;19.936;2022-08-11T17:04:05;23.20;51.90
51253;DHT22;38936;47.808;19.936;2022-08-11T17:06:51;23.20;51.90
51253;DHT22;38936;47.808;19.936;2022-08-11T17:09:36;23.20;52.20
51253;DHT22;38936;47.808;19.936;2022-08-11T17:12:24;23.20;52.40
51253;DHT22;38936;47.808;19.936;2022-08-11T17:15:14;23.20;51.90
51253;DHT22;38936;47.808;19.936;2022-08-11T17:18:01;23.10;51.90
51253;DHT22;38936;47.808;19.936;2022-08-11T17:20:28;23.10;52.20
51253;DHT22;38936;47.808;19.936;2022-08-11T17:22:55;23.00;52.20
51253;DHT22;38936;47.808;19.936;2022-08-11T17:25:40;22.90;52.40
51253;DHT22;38936;47.808;19.936;2022-08-11T17:28:09;22.90;52.70
51253;DHT22;38936;47.808;19.936;2022-08-11T17:30:37;22.80;52.60
51253;DHT22;38936;47.808;19.936;2022-08-11T17:33:23;22.80;52.80
51253;DHT22;38936;47.808;19.936;2022-08-11T17:36:08;22.80;52.70
51253;DHT22;38936;47.808;19.936;2022-08-11T17:38:35;22.80;53.00
51253;DHT22;38936;47.808;19.936;2022-08-11T17:41:03;22.70;53.30
51253;DHT22;38936;47.808;19.936;2022-08-11T17:43:49;22.50;54.40
51253;DHT22;38936;47.808;19.936;2022-08-11T17:46:34;22.50;53.80
51253;DHT22;38936;47.808;19.936;2022-08-11T17:49:20;22.40;53.60
51253;DHT22;38936;47.808;19.936;2022-08-11T17:51:48;22.30;53.60
51253;DHT22;38936;47.808;19.936;2022-08-11T17:54:34;22.30;54.10
51253;DHT22;38936;47.808;19.936;2022-08-11T17:57:19;22.30;53.50
51253;DHT22;38936;47.808;19.936;2022-08-11T18:00:06;22.20;53.80
51253;DHT22;38936;47.808;19.936;2022-08-11T18:05:20;22.10;53.50
51253;DHT22;38936;47.808;19.936;2022-08-11T18:07:50;22.10;53.90
51253;DHT22;38936;47.808;19.936;2022-08-11T18:10:36;22.10;54.10
51253;DHT22;38936;47.808;19.936;2022-08-11T18:13:23;22.10;54.40
51253;DHT22;38936;47.808;19.936;2022-08-11T18:16:10;22.00;55.10
51253;DHT22;38936;47.808;19.936;2022-08-11T18:18:55;21.90;55.40
51253;DHT22;38936;47.808;19.936;2022-08-11T18:21:42;21.90;55.50
51253;DHT22;38936;47.808;19.936;2022-08-11T18:24:29;21.90;55.60
51253;DHT22;38936;47.808;19.936;2022-08-11T18:27:15;21.90;55.50
51253;DHT22;38936;47.808;19.936;2022-08-11T18:30:02;21.80;55.60
51253;DHT22;38936;47.808;19.936;2022-08-11T18:32:47;21.70;55.70
51253;DHT22;38936;47.808;19.936;2022-08-11T18:35:32;21.70;56.00
51253;DHT22;38936;47.808;19.936;2022-08-11T18:38:19;21.70;56.00
51253;DHT22;38936;47.808;19.936;2022-08-11T18:41:07;21.60;56.40
51253;DHT22;38936;47.808;19.936;2022-08-11T18:43:56;21.70;56.60
51253;DHT22;38936;47.808;19.936;2022-08-11T18:46:44;21.60;56.70
51253;DHT22;38936;47.808;19.936;2022-08-11T18:49:34;21.60;56.40
51253;DHT22;38936;47.808;19.936;2022-08-11T18:52:20;21.60;55.80
51253;DHT22;38936;47.808;19.936;2022-08-11T18:55:13;21.60;55.90
51253;DHT22;38936;47.808;19.936;2022-08-11T18:58:04;21.70;55.30
51253;DHT22;38936;47.808;19.936;2022-08-11T19:00:50;21.70;55.40
51253;DHT22;38936;47.808;19.936;2022-08-11T19:03:38;21.70;55.50
51253;DHT22;38936;47.808;19.936;2022-08-11T19:06:24;21.70;55.30
51253;DHT22;38936;47.808;19.936;2022-08-11T19:09:13;21.70;55.40
51253;DHT22;38936;47.808;19.936;2022-08-11T19:12:00;21.70;55.20
51253;DHT22;38936;47.808;19.936;2022-08-11T19:14:47;21.70;55.10
51253;DHT22;38936;47.808;19.936;2022-08-11T19:17:34;21.80;54.80
51253;DHT22;38936;47.808;19.936;2022-08-11T19:20:20;21.70;54.60
51253;DHT22;38936;47.808;19.936;2022-08-11T19:23:06;21.80;53.70
51253;DHT22;38936;47.808;19.936;2022-08-11T19:25:51;21.80;53.60
51253;DHT22;38936;47.808;19.936;2022-08-11T19:28:38;21.70;53.90
51253;DHT22;38936;47.808;19.936;2022-08-11T19:31:26;21.80;54.00
51253;DHT22;38936;47.808;19.936;2022-08-11T19:34:16;21.80;54.20
51253;DHT22;38936;47.808;19.936;2022-08-11T19:37:00;21.80;54.20
51253;DHT22;38936;47.808;19.936;2022-08-11T19:39:46;21.80;54.30
51253;DHT22;38936;47.808;19.936;2022-08-11T19:42:30;21.80;54.60
51253;DHT22;38936;47.808;19.936;2022-08-11T19:45:16;21.70;54.70
51253;DHT22;38936;47.808;19.936;2022-08-11T19:48:00;21.70;54.80
51253;DHT22;38936;47.808;19.936;2022-08-11T19:50:44;21.60;55.10
51253;DHT22;38936;47.808;19.936;2022-08-11T19:53:31;21.60;55.80
51253;DHT22;38936;47.808;19.936;2022-08-11T19:56:16;21.60;56.40